Yc Cosmos — DSRJ2 — position and weather

sailwx.info

Track history (hours):
 
Tides and Currents Weather Stations Pressure Air Temp Water Temp Dewpoint Dewpoint Depression Visibility Wind Speed Wind Dir Waves Ship Positions

Yc Cosmos

Last reported at 2018-Feb-10 03:39 UTC. Time now 2018-Feb-17 21:42 UTC.
Position N 41°13' E 139°05'.

Length 105 m; draft 5.9 m.

Type: Ship (hazmat cat A). MMSI: 441878000.

Date/timePositionNaut miles runAvg speedWind from/ knotsBaromVisibWave heightAir tempDewpointWater temp
2018-Feb-10 03:39N 41°13' E 139°05'510.9
2018-Feb-10 03:10N 41°18' E 139°06'210.4
2018-Feb-10 03:00N 41°20' E 139°06'510.9
2018-Feb-10 02:31N 41°25' E 139°07'1012.0
2018-Feb-10 01:41N 41°35' E 139°09'312.5
2018-Feb-10 01:28N 41°38' E 139°09'20 0.4
2018-Feb-08 01:30N 41°31' E 139°35'713.1
2018-Feb-08 01:00N 41°25' E 139°34'613.1
2018-Feb-08 00:30N 41°19' E 139°32'  
Track history (hours):
 
Tides and Currents Weather Stations Pressure Air Temp Water Temp Dewpoint Dewpoint Depression Visibility Wind Speed Wind Dir Waves Ship Positions

Yc Cosmos

Last reported at 2018-Feb-10 03:39 UTC. Time now 2018-Feb-17 21:42 UTC.
Position N 41°13' E 139°05'.

Length 105 m; draft 5.9 m.

Type: Ship (hazmat cat A). MMSI: 441878000.

Date/timePositionNaut miles runAvg speedWind from/ knotsBaromVisibWave heightAir tempDewpointWater temp
2018-Feb-10 03:39N 41°13' E 139°05'510.9
2018-Feb-10 03:10N 41°18' E 139°06'210.4
2018-Feb-10 03:00N 41°20' E 139°06'510.9
2018-Feb-10 02:31N 41°25' E 139°07'1012.0
2018-Feb-10 01:41N 41°35' E 139°09'312.5
2018-Feb-10 01:28N 41°38' E 139°09'20 0.4
2018-Feb-08 01:30N 41°31' E 139°35'713.1
2018-Feb-08 01:00N 41°25' E 139°34'613.1
2018-Feb-08 00:30N 41°19' E 139°32'  

Dump ship's entire track history